sensor_id;sensor_type;location;lat;lon;timestamp;P1;durP1;ratioP1;P2;durP2;ratioP2
55053;SDS011;40954;45.668;18.980;2022-11-23T00:01:26;13.57;;;10.07;;
55053;SDS011;40954;45.668;18.980;2022-11-23T00:03:53;12.27;;;9.70;;
55053;SDS011;40954;45.668;18.980;2022-11-23T00:06:20;13.32;;;9.70;;
55053;SDS011;40954;45.668;18.980;2022-11-23T00:08:46;12.80;;;9.60;;
55053;SDS011;40954;45.668;18.980;2022-11-23T00:11:12;11.55;;;8.88;;
55053;SDS011;40954;45.668;18.980;2022-11-23T00:13:38;11.18;;;9.35;;
55053;SDS011;40954;45.668;18.980;2022-11-23T00:16:05;10.70;;;8.73;;
55053;SDS011;40954;45.668;18.980;2022-11-23T00:18:32;11.10;;;9.10;;
55053;SDS011;40954;45.668;18.980;2022-11-23T00:20:58;12.93;;;8.65;;
55053;SDS011;40954;45.668;18.980;2022-11-23T00:23:24;13.85;;;8.30;;
55053;SDS011;40954;45.668;18.980;2022-11-23T00:25:51;10.80;;;9.38;;
55053;SDS011;40954;45.668;18.980;2022-11-23T00:28:17;10.63;;;9.18;;
55053;SDS011;40954;45.668;18.980;2022-11-23T00:30:47;9.45;;;7.95;;
55053;SDS011;40954;45.668;18.980;2022-11-23T00:33:14;9.63;;;8.60;;
55053;SDS011;40954;45.668;18.980;2022-11-23T00:35:40;11.25;;;8.75;;
55053;SDS011;40954;45.668;18.980;2022-11-23T00:38:06;11.75;;;8.18;;
55053;SDS011;40954;45.668;18.980;2022-11-23T00:40:32;10.20;;;8.30;;
55053;SDS011;40954;45.668;18.980;2022-11-23T00:42:58;9.95;;;8.02;;
55053;SDS011;40954;45.668;18.980;2022-11-23T00:45:24;10.75;;;8.13;;
55053;SDS011;40954;45.668;18.980;2022-11-23T00:47:50;8.90;;;8.00;;
55053;SDS011;40954;45.668;18.980;2022-11-23T00:50:16;9.50;;;8.25;;
55053;SDS011;40954;45.668;18.980;2022-11-23T00:52:42;8.90;;;7.47;;
55053;SDS011;40954;45.668;18.980;2022-11-23T00:55:08;8.88;;;7.97;;
55053;SDS011;40954;45.668;18.980;2022-11-23T00:57:34;9.85;;;8.63;;
55053;SDS011;40954;45.668;18.980;2022-11-23T01:00:04;10.35;;;7.97;;
55053;SDS011;40954;45.668;18.980;2022-11-23T01:02:32;8.18;;;7.32;;
55053;SDS011;40954;45.668;18.980;2022-11-23T01:04:58;9.25;;;7.53;;
55053;SDS011;40954;45.668;18.980;2022-11-23T01:07:24;9.63;;;8.13;;
55053;SDS011;40954;45.668;18.980;2022-11-23T01:09:54;7.93;;;7.13;;
55053;SDS011;40954;45.668;18.980;2022-11-23T01:12:20;12.50;;;7.00;;
55053;SDS011;40954;45.668;18.980;2022-11-23T01:14:46;8.07;;;7.22;;
55053;SDS011;40954;45.668;18.980;2022-11-23T01:17:12;7.53;;;6.22;;
55053;SDS011;40954;45.668;18.980;2022-11-23T01:19:38;10.25;;;7.32;;
55053;SDS011;40954;45.668;18.980;2022-11-23T01:22:04;8.27;;;7.13;;
55053;SDS011;40954;45.668;18.980;2022-11-23T01:24:30;9.10;;;6.80;;
55053;SDS011;40954;45.668;18.980;2022-11-23T01:26:56;10.77;;;6.90;;
55053;SDS011;40954;45.668;18.980;2022-11-23T01:29:23;8.27;;;7.07;;
55053;SDS011;40954;45.668;18.980;2022-11-23T01:31:49;7.95;;;6.40;;
55053;SDS011;40954;45.668;18.980;2022-11-23T01:34:15;8.55;;;6.70;;
55053;SDS011;40954;45.668;18.980;2022-11-23T01:36:42;9.95;;;6.78;;
55053;SDS011;40954;45.668;18.980;2022-11-23T01:39:09;7.20;;;6.45;;
55053;SDS011;40954;45.668;18.980;2022-11-23T01:41:36;7.63;;;6.05;;
55053;SDS011;40954;45.668;18.980;2022-11-23T01:46:47;9.32;;;6.88;;
55053;SDS011;40954;45.668;18.980;2022-11-23T01:49:13;10.40;;;6.20;;
55053;SDS011;40954;45.668;18.980;2022-11-23T01:51:40;9.27;;;6.75;;
55053;SDS011;40954;45.668;18.980;2022-11-23T01:54:30;6.72;;;6.05;;
55053;SDS011;40954;45.668;18.980;2022-11-23T01:56:56;7.22;;;5.50;;
55053;SDS011;40954;45.668;18.980;2022-11-23T01:59:25;8.05;;;6.15;;
55053;SDS011;40954;45.668;18.980;2022-11-23T02:01:51;7.03;;;6.03;;
55053;SDS011;40954;45.668;18.980;2022-11-23T02:04:24;7.28;;;6.35;;
55053;SDS011;40954;45.668;18.980;2022-11-23T02:06:52;9.20;;;6.10;;
55053;SDS011;40954;45.668;18.980;2022-11-23T02:09:19;7.60;;;6.13;;
55053;SDS011;40954;45.668;18.980;2022-11-23T02:11:46;8.00;;;5.85;;
55053;SDS011;40954;45.668;18.980;2022-11-23T02:14:12;8.05;;;6.07;;
55053;SDS011;40954;45.668;18.980;2022-11-23T02:16:38;9.80;;;5.95;;
55053;SDS011;40954;45.668;18.980;2022-11-23T02:19:12;8.18;;;5.50;;
55053;SDS011;40954;45.668;18.980;2022-11-23T02:21:41;6.50;;;5.13;;
55053;SDS011;40954;45.668;18.980;2022-11-23T02:24:09;6.60;;;5.38;;
55053;SDS011;40954;45.668;18.980;2022-11-23T02:26:37;6.55;;;5.78;;
55053;SDS011;40954;45.668;18.980;2022-11-23T02:31:29;6.68;;;5.50;;
55053;SDS011;40954;45.668;18.980;2022-11-23T02:33:55;7.95;;;5.85;;
55053;SDS011;40954;45.668;18.980;2022-11-23T02:38:54;10.27;;;6.07;;
55053;SDS011;40954;45.668;18.980;2022-11-23T02:41:20;8.07;;;6.22;;
55053;SDS011;40954;45.668;18.980;2022-11-23T02:43:47;7.80;;;5.78;;
55053;SDS011;40954;45.668;18.980;2022-11-23T02:46:14;7.43;;;5.63;;
55053;SDS011;40954;45.668;18.980;2022-11-23T02:48:40;6.60;;;5.82;;
55053;SDS011;40954;45.668;18.980;2022-11-23T02:51:06;7.53;;;5.95;;
55053;SDS011;40954;45.668;18.980;2022-11-23T02:53:32;6.97;;;6.07;;
55053;SDS011;40954;45.668;18.980;2022-11-23T02:55:58;11.07;;;6.50;;
55053;SDS011;40954;45.668;18.980;2022-11-23T02:58:24;7.72;;;6.05;;
55053;SDS011;40954;45.668;18.980;2022-11-23T03:00:50;7.60;;;5.88;;
55053;SDS011;40954;45.668;18.980;2022-11-23T03:03:16;6.50;;;5.82;;
55053;SDS011;40954;45.668;18.980;2022-11-23T03:05:43;7.43;;;5.80;;
55053;SDS011;40954;45.668;18.980;2022-11-23T03:08:09;6.78;;;6.00;;
55053;SDS011;40954;45.668;18.980;2022-11-23T03:10:35;7.18;;;5.82;;
55053;SDS011;40954;45.668;18.980;2022-11-23T03:13:01;7.10;;;5.75;;
55053;SDS011;40954;45.668;18.980;2022-11-23T03:15:27;7.50;;;5.78;;
55053;SDS011;40954;45.668;18.980;2022-11-23T03:17:53;6.97;;;5.50;;
55053;SDS011;40954;45.668;18.980;2022-11-23T03:20:19;7.18;;;6.38;;
55053;SDS011;40954;45.668;18.980;2022-11-23T03:22:45;8.45;;;6.35;;
55053;SDS011;40954;45.668;18.980;2022-11-23T03:25:11;9.43;;;6.72;;
55053;SDS011;40954;45.668;18.980;2022-11-23T03:27:37;9.57;;;6.30;;
55053;SDS011;40954;45.668;18.980;2022-11-23T03:30:04;9.00;;;6.22;;
55053;SDS011;40954;45.668;18.980;2022-11-23T03:32:31;8.60;;;7.00;;
55053;SDS011;40954;45.668;18.980;2022-11-23T03:34:57;7.13;;;6.03;;
55053;SDS011;40954;45.668;18.980;2022-11-23T03:37:23;9.20;;;7.00;;
55053;SDS011;40954;45.668;18.980;2022-11-23T03:39:49;9.48;;;6.28;;
55053;SDS011;40954;45.668;18.980;2022-11-23T03:42:16;7.85;;;6.13;;
55053;SDS011;40954;45.668;18.980;2022-11-23T03:44:42;8.57;;;7.28;;
55053;SDS011;40954;45.668;18.980;2022-11-23T03:47:08;11.40;;;7.35;;
55053;SDS011;40954;45.668;18.980;2022-11-23T03:49:34;9.23;;;7.15;;
55053;SDS011;40954;45.668;18.980;2022-11-23T03:52:00;8.98;;;6.68;;
55053;SDS011;40954;45.668;18.980;2022-11-23T03:54:26;10.50;;;6.45;;
55053;SDS011;40954;45.668;18.980;2022-11-23T03:56:52;8.75;;;6.30;;
55053;SDS011;40954;45.668;18.980;2022-11-23T03:59:18;9.10;;;6.57;;
55053;SDS011;40954;45.668;18.980;2022-11-23T04:01:44;7.38;;;6.13;;
55053;SDS011;40954;45.668;18.980;2022-11-23T04:04:10;6.93;;;6.22;;
55053;SDS011;40954;45.668;18.980;2022-11-23T04:06:36;7.22;;;6.38;;
55053;SDS011;40954;45.668;18.980;2022-11-23T04:09:02;10.77;;;7.10;;
55053;SDS011;40954;45.668;18.980;2022-11-23T04:11:28;7.95;;;6.63;;
55053;SDS011;40954;45.668;18.980;2022-11-23T04:13:54;7.85;;;6.30;;
55053;SDS011;40954;45.668;18.980;2022-11-23T04:16:20;7.95;;;6.88;;
55053;SDS011;40954;45.668;18.980;2022-11-23T04:18:46;13.27;;;7.68;;
55053;SDS011;40954;45.668;18.980;2022-11-23T04:21:12;13.73;;;9.25;;
55053;SDS011;40954;45.668;18.980;2022-11-23T04:23:38;8.57;;;7.75;;
55053;SDS011;40954;45.668;18.980;2022-11-23T04:26:04;8.05;;;7.25;;
55053;SDS011;40954;45.668;18.980;2022-11-23T04:28:30;12.05;;;7.22;;
55053;SDS011;40954;45.668;18.980;2022-11-23T04:30:56;8.82;;;7.28;;
55053;SDS011;40954;45.668;18.980;2022-11-23T04:33:23;8.20;;;7.25;;
55053;SDS011;40954;45.668;18.980;2022-11-23T04:35:49;11.25;;;7.65;;
55053;SDS011;40954;45.668;18.980;2022-11-23T04:38:16;10.18;;;7.75;;
55053;SDS011;40954;45.668;18.980;2022-11-23T04:40:42;10.10;;;7.32;;
55053;SDS011;40954;45.668;18.980;2022-11-23T04:43:08;8.63;;;7.18;;
55053;SDS011;40954;45.668;18.980;2022-11-23T04:45:40;11.93;;;6.97;;
55053;SDS011;40954;45.668;18.980;2022-11-23T04:48:06;7.50;;;6.65;;
55053;SDS011;40954;45.668;18.980;2022-11-23T04:50:32;9.80;;;6.97;;
55053;SDS011;40954;45.668;18.980;2022-11-23T04:52:59;7.68;;;6.70;;
55053;SDS011;40954;45.668;18.980;2022-11-23T04:55:25;6.75;;;6.05;;
55053;SDS011;40954;45.668;18.980;2022-11-23T04:57:51;9.18;;;6.95;;
55053;SDS011;40954;45.668;18.980;2022-11-23T05:00:17;10.07;;;6.32;;
55053;SDS011;40954;45.668;18.980;2022-11-23T05:02:43;8.10;;;6.82;;
55053;SDS011;40954;45.668;18.980;2022-11-23T05:05:09;10.23;;;7.97;;
55053;SDS011;40954;45.668;18.980;2022-11-23T05:07:35;9.43;;;7.35;;
55053;SDS011;40954;45.668;18.980;2022-11-23T05:10:02;11.23;;;7.93;;
55053;SDS011;40954;45.668;18.980;2022-11-23T05:12:28;12.80;;;8.07;;
55053;SDS011;40954;45.668;18.980;2022-11-23T05:14:54;10.43;;;8.00;;
55053;SDS011;40954;45.668;18.980;2022-11-23T05:17:20;12.15;;;9.15;;
55053;SDS011;40954;45.668;18.980;2022-11-23T05:19:46;12.93;;;8.93;;
55053;SDS011;40954;45.668;18.980;2022-11-23T05:22:12;15.05;;;9.52;;
55053;SDS011;40954;45.668;18.980;2022-11-23T05:24:38;10.82;;;9.30;;
55053;SDS011;40954;45.668;18.980;2022-11-23T05:27:04;11.88;;;8.90;;
55053;SDS011;40954;45.668;18.980;2022-11-23T05:29:30;12.70;;;9.07;;
55053;SDS011;40954;45.668;18.980;2022-11-23T05:31:57;14.88;;;10.23;;
55053;SDS011;40954;45.668;18.980;2022-11-23T05:34:23;12.27;;;9.55;;
55053;SDS011;40954;45.668;18.980;2022-11-23T05:36:49;10.82;;;8.85;;
55053;SDS011;40954;45.668;18.980;2022-11-23T05:39:15;13.57;;;9.13;;
55053;SDS011;40954;45.668;18.980;2022-11-23T05:41:41;16.52;;;9.75;;
55053;SDS011;40954;45.668;18.980;2022-11-23T05:44:07;14.82;;;10.25;;
55053;SDS011;40954;45.668;18.980;2022-11-23T05:46:33;11.93;;;9.68;;
55053;SDS011;40954;45.668;18.980;2022-11-23T05:48:59;11.82;;;10.52;;
55053;SDS011;40954;45.668;18.980;2022-11-23T05:51:25;17.42;;;12.88;;
55053;SDS011;40954;45.668;18.980;2022-11-23T05:53:51;19.98;;;13.32;;
55053;SDS011;40954;45.668;18.980;2022-11-23T05:56:17;15.32;;;12.40;;
55053;SDS011;40954;45.668;18.980;2022-11-23T05:58:43;17.63;;;12.98;;
55053;SDS011;40954;45.668;18.980;2022-11-23T06:01:09;22.23;;;12.95;;
55053;SDS011;40954;45.668;18.980;2022-11-23T06:03:35;18.92;;;13.52;;
55053;SDS011;40954;45.668;18.980;2022-11-23T06:06:02;18.02;;;12.73;;
55053;SDS011;40954;45.668;18.980;2022-11-23T06:08:28;17.10;;;12.25;;
55053;SDS011;40954;45.668;18.980;2022-11-23T06:10:54;13.85;;;11.70;;
55053;SDS011;40954;45.668;18.980;2022-11-23T06:13:20;15.60;;;10.48;;
55053;SDS011;40954;45.668;18.980;2022-11-23T06:15:46;16.95;;;11.82;;
55053;SDS011;40954;45.668;18.980;2022-11-23T06:18:12;15.40;;;13.15;;
55053;SDS011;40954;45.668;18.980;2022-11-23T06:20:38;15.25;;;11.70;;
55053;SDS011;40954;45.668;18.980;2022-11-23T06:23:04;18.00;;;12.20;;
55053;SDS011;40954;45.668;18.980;2022-11-23T06:25:30;19.75;;;13.75;;
55053;SDS011;40954;45.668;18.980;2022-11-23T06:27:57;17.30;;;13.95;;
55053;SDS011;40954;45.668;18.980;2022-11-23T06:30:24;23.20;;;17.00;;
55053;SDS011;40954;45.668;18.980;2022-11-23T06:32:50;21.65;;;16.58;;
55053;SDS011;40954;45.668;18.980;2022-11-23T06:35:16;27.52;;;21.15;;
55053;SDS011;40954;45.668;18.980;2022-11-23T06:37:42;25.25;;;20.90;;
55053;SDS011;40954;45.668;18.980;2022-11-23T06:40:09;40.60;;;32.20;;
55053;SDS011;40954;45.668;18.980;2022-11-23T06:42:35;39.30;;;29.55;;
55053;SDS011;40954;45.668;18.980;2022-11-23T06:45:01;38.83;;;28.45;;
55053;SDS011;40954;45.668;18.980;2022-11-23T06:47:27;33.33;;;25.17;;
55053;SDS011;40954;45.668;18.980;2022-11-23T06:49:53;30.73;;;20.60;;
55053;SDS011;40954;45.668;18.980;2022-11-23T06:52:19;30.52;;;21.83;;
55053;SDS011;40954;45.668;18.980;2022-11-23T06:54:46;23.02;;;16.77;;
55053;SDS011;40954;45.668;18.980;2022-11-23T06:57:12;22.15;;;15.48;;
55053;SDS011;40954;45.668;18.980;2022-11-23T06:59:38;28.10;;;17.35;;
55053;SDS011;40954;45.668;18.980;2022-11-23T07:02:04;31.90;;;20.90;;
55053;SDS011;40954;45.668;18.980;2022-11-23T07:04:30;28.95;;;22.42;;
55053;SDS011;40954;45.668;18.980;2022-11-23T07:06:56;27.23;;;19.20;;
55053;SDS011;40954;45.668;18.980;2022-11-23T07:09:22;18.75;;;15.60;;
55053;SDS011;40954;45.668;18.980;2022-11-23T07:11:48;17.48;;;14.48;;
55053;SDS011;40954;45.668;18.980;2022-11-23T07:14:15;21.92;;;17.73;;
55053;SDS011;40954;45.668;18.980;2022-11-23T07:16:41;18.65;;;15.07;;
55053;SDS011;40954;45.668;18.980;2022-11-23T07:19:07;20.40;;;16.33;;
55053;SDS011;40954;45.668;18.980;2022-11-23T07:21:33;20.38;;;15.18;;
55053;SDS011;40954;45.668;18.980;2022-11-23T07:23:59;22.13;;;16.52;;
55053;SDS011;40954;45.668;18.980;2022-11-23T07:26:25;20.33;;;15.95;;
55053;SDS011;40954;45.668;18.980;2022-11-23T07:28:51;22.40;;;17.25;;
55053;SDS011;40954;45.668;18.980;2022-11-23T07:31:17;27.33;;;19.83;;
55053;SDS011;40954;45.668;18.980;2022-11-23T07:33:44;23.58;;;18.17;;
55053;SDS011;40954;45.668;18.980;2022-11-23T07:36:10;24.05;;;18.10;;
55053;SDS011;40954;45.668;18.980;2022-11-23T07:38:36;27.70;;;19.40;;
55053;SDS011;40954;45.668;18.980;2022-11-23T07:41:03;29.55;;;21.20;;
55053;SDS011;40954;45.668;18.980;2022-11-23T07:43:29;26.05;;;18.98;;
55053;SDS011;40954;45.668;18.980;2022-11-23T07:45:55;26.13;;;20.90;;
55053;SDS011;40954;45.668;18.980;2022-11-23T07:48:22;22.30;;;16.80;;
55053;SDS011;40954;45.668;18.980;2022-11-23T07:50:50;18.55;;;14.80;;
55053;SDS011;40954;45.668;18.980;2022-11-23T07:53:16;20.48;;;15.32;;
55053;SDS011;40954;45.668;18.980;2022-11-23T07:55:43;22.20;;;15.82;;
55053;SDS011;40954;45.668;18.980;2022-11-23T07:58:09;18.88;;;16.02;;
55053;SDS011;40954;45.668;18.980;2022-11-23T08:00:35;22.17;;;17.85;;
55053;SDS011;40954;45.668;18.980;2022-11-23T08:03:01;20.55;;;15.10;;
55053;SDS011;40954;45.668;18.980;2022-11-23T08:05:27;29.67;;;19.83;;
55053;SDS011;40954;45.668;18.980;2022-11-23T08:07:56;25.02;;;19.27;;
55053;SDS011;40954;45.668;18.980;2022-11-23T08:10:23;22.08;;;17.35;;
55053;SDS011;40954;45.668;18.980;2022-11-23T08:12:50;21.15;;;16.85;;
55053;SDS011;40954;45.668;18.980;2022-11-23T08:15:15;21.92;;;16.33;;
55053;SDS011;40954;45.668;18.980;2022-11-23T08:17:41;18.83;;;13.43;;
55053;SDS011;40954;45.668;18.980;2022-11-23T08:20:07;17.25;;;14.15;;
55053;SDS011;40954;45.668;18.980;2022-11-23T08:22:33;16.17;;;13.25;;
55053;SDS011;40954;45.668;18.980;2022-11-23T08:24:58;15.52;;;12.57;;
55053;SDS011;40954;45.668;18.980;2022-11-23T08:27:24;17.88;;;14.48;;
55053;SDS011;40954;45.668;18.980;2022-11-23T08:29:50;14.52;;;12.93;;
55053;SDS011;40954;45.668;18.980;2022-11-23T08:32:16;17.60;;;12.93;;
55053;SDS011;40954;45.668;18.980;2022-11-23T08:34:43;13.60;;;11.07;;
55053;SDS011;40954;45.668;18.980;2022-11-23T08:37:09;16.08;;;13.75;;
55053;SDS011;40954;45.668;18.980;2022-11-23T08:39:36;17.30;;;14.05;;
55053;SDS011;40954;45.668;18.980;2022-11-23T08:42:02;16.13;;;13.65;;
55053;SDS011;40954;45.668;18.980;2022-11-23T08:44:28;27.60;;;17.38;;
55053;SDS011;40954;45.668;18.980;2022-11-23T08:46:54;20.13;;;13.55;;
55053;SDS011;40954;45.668;18.980;2022-11-23T08:49:20;19.55;;;13.27;;
55053;SDS011;40954;45.668;18.980;2022-11-23T08:51:46;77.10;;;37.95;;
55053;SDS011;40954;45.668;18.980;2022-11-23T08:54:12;18.42;;;14.52;;
55053;SDS011;40954;45.668;18.980;2022-11-23T08:56:41;19.27;;;14.00;;
55053;SDS011;40954;45.668;18.980;2022-11-23T08:59:07;12.13;;;9.90;;
55053;SDS011;40954;45.668;18.980;2022-11-23T09:01:33;12.27;;;10.05;;
55053;SDS011;40954;45.668;18.980;2022-11-23T09:03:59;17.50;;;12.82;;
55053;SDS011;40954;45.668;18.980;2022-11-23T09:06:26;14.80;;;11.68;;
55053;SDS011;40954;45.668;18.980;2022-11-23T09:08:53;18.75;;;13.57;;
55053;SDS011;40954;45.668;18.980;2022-11-23T09:11:19;13.88;;;11.65;;
55053;SDS011;40954;45.668;18.980;2022-11-23T09:13:46;14.85;;;12.23;;
55053;SDS011;40954;45.668;18.980;2022-11-23T09:16:12;11.80;;;9.20;;
55053;SDS011;40954;45.668;18.980;2022-11-23T09:18:38;10.80;;;8.77;;
55053;SDS011;40954;45.668;18.980;2022-11-23T09:21:04;12.90;;;10.38;;
55053;SDS011;40954;45.668;18.980;2022-11-23T09:23:31;12.13;;;10.30;;
55053;SDS011;40954;45.668;18.980;2022-11-23T09:25:57;8.15;;;7.15;;
55053;SDS011;40954;45.668;18.980;2022-11-23T09:28:24;10.82;;;8.45;;
55053;SDS011;40954;45.668;18.980;2022-11-23T09:30:52;27.38;;;15.68;;
55053;SDS011;40954;45.668;18.980;2022-11-23T09:33:19;17.38;;;12.07;;
55053;SDS011;40954;45.668;18.980;2022-11-23T09:35:45;19.45;;;14.77;;
55053;SDS011;40954;45.668;18.980;2022-11-23T09:38:11;18.08;;;12.85;;
55053;SDS011;40954;45.668;18.980;2022-11-23T09:40:38;10.05;;;8.98;;
55053;SDS011;40954;45.668;18.980;2022-11-23T09:45:36;9.50;;;8.32;;
55053;SDS011;40954;45.668;18.980;2022-11-23T09:50:49;7.20;;;6.50;;
55053;SDS011;40954;45.668;18.980;2022-11-23T09:53:47;11.23;;;9.70;;
55053;SDS011;40954;45.668;18.980;2022-11-23T09:58:51;7.65;;;6.78;;
55053;SDS011;40954;45.668;18.980;2022-11-23T10:01:18;10.90;;;7.38;;
55053;SDS011;40954;45.668;18.980;2022-11-23T10:03:44;14.85;;;10.73;;
55053;SDS011;40954;45.668;18.980;2022-11-23T10:19:01;5.47;;;4.93;;
55053;SDS011;40954;45.668;18.980;2022-11-23T10:21:53;6.55;;;5.85;;
55053;SDS011;40954;45.668;18.980;2022-11-23T10:24:18;6.28;;;5.15;;
55053;SDS011;40954;45.668;18.980;2022-11-23T10:26:46;7.18;;;6.47;;
55053;SDS011;40954;45.668;18.980;2022-11-23T10:31:57;9.05;;;6.10;;
55053;SDS011;40954;45.668;18.980;2022-11-23T10:34:29;6.93;;;5.60;;
55053;SDS011;40954;45.668;18.980;2022-11-23T10:37:15;7.25;;;6.40;;
55053;SDS011;40954;45.668;18.980;2022-11-23T10:39:42;14.95;;;9.93;;
55053;SDS011;40954;45.668;18.980;2022-11-23T10:42:13;16.13;;;9.43;;
55053;SDS011;40954;45.668;18.980;2022-11-23T10:44:53;11.77;;;8.43;;
55053;SDS011;40954;45.668;18.980;2022-11-23T10:49:58;12.90;;;9.45;;
55053;SDS011;40954;45.668;18.980;2022-11-23T10:52:28;13.50;;;10.38;;
55053;SDS011;40954;45.668;18.980;2022-11-23T10:54:56;9.83;;;7.13;;
55053;SDS011;40954;45.668;18.980;2022-11-23T11:02:40;14.80;;;11.18;;
55053;SDS011;40954;45.668;18.980;2022-11-23T11:05:19;8.88;;;6.80;;
55053;SDS011;40954;45.668;18.980;2022-11-23T11:07:46;15.70;;;9.45;;
55053;SDS011;40954;45.668;18.980;2022-11-23T11:13:27;10.32;;;6.15;;
55053;SDS011;40954;45.668;18.980;2022-11-23T11:16:05;6.40;;;5.15;;
55053;SDS011;40954;45.668;18.980;2022-11-23T11:18:44;10.75;;;7.55;;
55053;SDS011;40954;45.668;18.980;2022-11-23T11:24:14;9.00;;;6.47;;
55053;SDS011;40954;45.668;18.980;2022-11-23T11:27:05;7.85;;;6.30;;
55053;SDS011;40954;45.668;18.980;2022-11-23T11:29:38;7.50;;;6.05;;
55053;SDS011;40954;45.668;18.980;2022-11-23T11:32:16;9.45;;;6.70;;
55053;SDS011;40954;45.668;18.980;2022-11-23T11:35:23;10.10;;;5.82;;
55053;SDS011;40954;45.668;18.980;2022-11-23T11:37:50;12.50;;;7.55;;
55053;SDS011;40954;45.668;18.980;2022-11-23T11:43:41;7.85;;;5.95;;
55053;SDS011;40954;45.668;18.980;2022-11-23T11:45:55;9.85;;;6.68;;
55053;SDS011;40954;45.668;18.980;2022-11-23T11:48:26;11.70;;;7.72;;
55053;SDS011;40954;45.668;18.980;2022-11-23T11:50:59;17.42;;;8.05;;
55053;SDS011;40954;45.668;18.980;2022-11-23T11:56:17;9.02;;;6.57;;
55053;SDS011;40954;45.668;18.980;2022-11-23T11:58:55;9.07;;;6.03;;
55053;SDS011;40954;45.668;18.980;2022-11-23T12:01:41;11.05;;;7.13;;
55053;SDS011;40954;45.668;18.980;2022-11-23T12:04:18;9.50;;;7.68;;
55053;SDS011;40954;45.668;18.980;2022-11-23T12:09:45;16.15;;;9.35;;
55053;SDS011;40954;45.668;18.980;2022-11-23T12:12:14;16.08;;;11.82;;
55053;SDS011;40954;45.668;18.980;2022-11-23T12:14:41;13.00;;;9.15;;
55053;SDS011;40954;45.668;18.980;2022-11-23T12:17:09;14.73;;;9.43;;
55053;SDS011;40954;45.668;18.980;2022-11-23T12:24:39;11.88;;;8.43;;
55053;SDS011;40954;45.668;18.980;2022-11-23T12:58:30;9.27;;;8.10;;
55053;SDS011;40954;45.668;18.980;2022-11-23T13:01:18;10.30;;;8.00;;
55053;SDS011;40954;45.668;18.980;2022-11-23T13:09:15;9.48;;;6.80;;
55053;SDS011;40954;45.668;18.980;2022-11-23T13:20:00;9.57;;;6.45;;
55053;SDS011;40954;45.668;18.980;2022-11-23T13:22:30;15.98;;;11.70;;
55053;SDS011;40954;45.668;18.980;2022-11-23T13:27:41;10.10;;;7.03;;
55053;SDS011;40954;45.668;18.980;2022-11-23T13:30:21;8.95;;;6.93;;
55053;SDS011;40954;45.668;18.980;2022-11-23T13:32:57;7.75;;;6.15;;
55053;SDS011;40954;45.668;18.980;2022-11-23T13:40:28;11.05;;;9.52;;
55053;SDS011;40954;45.668;18.980;2022-11-23T13:42:56;9.07;;;7.63;;
55053;SDS011;40954;45.668;18.980;2022-11-23T13:45:31;7.90;;;6.72;;
55053;SDS011;40954;45.668;18.980;2022-11-23T13:50:29;8.25;;;6.60;;
55053;SDS011;40954;45.668;18.980;2022-11-23T13:52:59;7.53;;;6.43;;
55053;SDS011;40954;45.668;18.980;2022-11-23T14:00:46;6.53;;;5.85;;
55053;SDS011;40954;45.668;18.980;2022-11-23T14:05:58;8.85;;;5.88;;
55053;SDS011;40954;45.668;18.980;2022-11-23T14:08:25;7.93;;;5.75;;
55053;SDS011;40954;45.668;18.980;2022-11-23T14:10:52;5.70;;;4.78;;
55053;SDS011;40954;45.668;18.980;2022-11-23T14:13:23;5.60;;;4.55;;
55053;SDS011;40954;45.668;18.980;2022-11-23T14:15:54;5.30;;;4.80;;
55053;SDS011;40954;45.668;18.980;2022-11-23T14:26:17;11.88;;;9.45;;
55053;SDS011;40954;45.668;18.980;2022-11-23T14:28:55;11.10;;;8.32;;
55053;SDS011;40954;45.668;18.980;2022-11-23T14:41:31;8.50;;;6.80;;
55053;SDS011;40954;45.668;18.980;2022-11-23T14:44:00;7.28;;;6.00;;
55053;SDS011;40954;45.668;18.980;2022-11-23T14:46:27;9.02;;;7.50;;
55053;SDS011;40954;45.668;18.980;2022-11-23T14:49:03;10.75;;;7.90;;
55053;SDS011;40954;45.668;18.980;2022-11-23T14:51:30;4.88;;;4.38;;
55053;SDS011;40954;45.668;18.980;2022-11-23T14:53:59;7.10;;;6.40;;
55053;SDS011;40954;45.668;18.980;2022-11-23T14:56:30;9.93;;;7.70;;
55053;SDS011;40954;45.668;18.980;2022-11-23T14:59:04;7.45;;;6.68;;
55053;SDS011;40954;45.668;18.980;2022-11-23T15:01:32;6.68;;;6.03;;
55053;SDS011;40954;45.668;18.980;2022-11-23T15:03:59;8.07;;;6.20;;
55053;SDS011;40954;45.668;18.980;2022-11-23T15:06:32;9.85;;;8.02;;
55053;SDS011;40954;45.668;18.980;2022-11-23T15:11:47;17.83;;;11.20;;
55053;SDS011;40954;45.668;18.980;2022-11-23T15:14:25;8.50;;;6.10;;
55053;SDS011;40954;45.668;18.980;2022-11-23T15:16:51;11.38;;;7.40;;
55053;SDS011;40954;45.668;18.980;2022-11-23T15:19:25;11.02;;;6.82;;
55053;SDS011;40954;45.668;18.980;2022-11-23T15:21:52;7.07;;;6.10;;
55053;SDS011;40954;45.668;18.980;2022-11-23T15:24:20;8.82;;;7.03;;
55053;SDS011;40954;45.668;18.980;2022-11-23T15:26:46;8.57;;;6.15;;
55053;SDS011;40954;45.668;18.980;2022-11-23T15:31:57;9.73;;;6.05;;
55053;SDS011;40954;45.668;18.980;2022-11-23T15:34:24;13.30;;;9.10;;
55053;SDS011;40954;45.668;18.980;2022-11-23T15:36:50;18.75;;;11.48;;
55053;SDS011;40954;45.668;18.980;2022-11-23T15:39:17;7.38;;;6.25;;
55053;SDS011;40954;45.668;18.980;2022-11-23T15:41:44;9.57;;;8.07;;
55053;SDS011;40954;45.668;18.980;2022-11-23T15:44:29;7.65;;;5.78;;
55053;SDS011;40954;45.668;18.980;2022-11-23T15:46:57;8.38;;;6.75;;
55053;SDS011;40954;45.668;18.980;2022-11-23T15:49:24;6.00;;;5.03;;
55053;SDS011;40954;45.668;18.980;2022-11-23T15:51:51;6.25;;;4.50;;
55053;SDS011;40954;45.668;18.980;2022-11-23T15:54:24;8.85;;;6.32;;
55053;SDS011;40954;45.668;18.980;2022-11-23T15:56:51;8.73;;;7.40;;
55053;SDS011;40954;45.668;18.980;2022-11-23T16:01:54;6.03;;;5.38;;
55053;SDS011;40954;45.668;18.980;2022-11-23T16:04:37;8.75;;;7.15;;
55053;SDS011;40954;45.668;18.980;2022-11-23T16:07:20;5.88;;;5.05;;
55053;SDS011;40954;45.668;18.980;2022-11-23T16:10:32;8.00;;;6.95;;
55053;SDS011;40954;45.668;18.980;2022-11-23T16:12:33;8.23;;;7.13;;
55053;SDS011;40954;45.668;18.980;2022-11-23T16:17:46;8.55;;;6.65;;
55053;SDS011;40954;45.668;18.980;2022-11-23T16:20:13;7.63;;;6.57;;
55053;SDS011;40954;45.668;18.980;2022-11-23T16:22:39;9.63;;;7.75;;
55053;SDS011;40954;45.668;18.980;2022-11-23T16:27:41;8.88;;;6.35;;
55053;SDS011;40954;45.668;18.980;2022-11-23T16:30:24;13.90;;;9.40;;
55053;SDS011;40954;45.668;18.980;2022-11-23T16:32:50;9.30;;;7.55;;
55053;SDS011;40954;45.668;18.980;2022-11-23T16:35:17;9.95;;;8.02;;
55053;SDS011;40954;45.668;18.980;2022-11-23T16:37:44;6.95;;;5.82;;
55053;SDS011;40954;45.668;18.980;2022-11-23T16:40:10;11.00;;;8.27;;
55053;SDS011;40954;45.668;18.980;2022-11-23T16:42:36;5.90;;;4.90;;
55053;SDS011;40954;45.668;18.980;2022-11-23T16:45:03;10.48;;;7.43;;
55053;SDS011;40954;45.668;18.980;2022-11-23T16:47:29;8.32;;;6.95;;
55053;SDS011;40954;45.668;18.980;2022-11-23T16:49:55;10.80;;;9.18;;
55053;SDS011;40954;45.668;18.980;2022-11-23T16:52:21;11.07;;;8.95;;
55053;SDS011;40954;45.668;18.980;2022-11-23T16:54:48;10.90;;;8.73;;
55053;SDS011;40954;45.668;18.980;2022-11-23T16:57:16;8.70;;;6.57;;
55053;SDS011;40954;45.668;18.980;2022-11-23T16:59:43;11.68;;;8.55;;
55053;SDS011;40954;45.668;18.980;2022-11-23T17:02:12;8.73;;;7.22;;